createdAt,value
2022-09-17T00:00:39.238Z,8.81
2022-09-17T00:10:24.475Z,8.42
2022-09-17T00:12:51.405Z,8.35
2022-09-17T00:19:09.039Z,8.08
2022-09-17T00:25:38.829Z,7.98
2022-09-17T00:28:05.447Z,7.97
2022-09-17T00:30:32.186Z,7.93
2022-09-17T00:40:32.129Z,7.82
2022-09-17T00:43:00.336Z,7.80
2022-09-17T00:49:28.641Z,7.75
2022-09-17T00:56:01.749Z,7.77
2022-09-17T00:58:29.935Z,7.75
2022-09-17T01:04:43.397Z,7.96
2022-09-17T01:07:32.787Z,8.11
2022-09-17T01:10:08.026Z,8.22
2022-09-17T01:20:48.387Z,8.04
2022-09-17T01:23:36.860Z,7.93
2022-09-17T01:34:05.188Z,7.87
2022-09-17T01:43:58.981Z,8.15
2022-09-17T01:46:41.631Z,8.25
2022-09-17T01:49:10.690Z,8.24
2022-09-17T01:55:29.896Z,8.18
2022-09-17T01:58:01.419Z,8.28
2022-09-17T02:00:28.122Z,8.26
2022-09-17T02:06:48.542Z,8.25
2022-09-17T02:14:04.052Z,8.45
2022-09-17T02:16:34.335Z,8.48
2022-09-17T02:19:16.576Z,8.50
2022-09-17T02:25:57.261Z,8.53
2022-09-17T02:28:33.636Z,8.43
2022-09-17T02:34:47.717Z,8.46
2022-09-17T02:37:14.515Z,8.54
2022-09-17T02:47:45.146Z,8.46
2022-09-17T02:50:30.176Z,8.42
2022-09-17T03:05:05.993Z,8.60
2022-09-17T03:07:32.756Z,8.63
2022-09-17T03:09:59.634Z,8.60
2022-09-17T03:12:26.883Z,8.54
2022-09-17T03:18:40.172Z,8.22
2022-09-17T03:25:10.058Z,7.71
2022-09-17T03:27:36.516Z,7.57
2022-09-17T03:30:03.727Z,7.55
2022-09-17T03:38:56.703Z,7.49
2022-09-17T03:45:25.503Z,7.49
2022-09-17T03:47:51.994Z,7.52
2022-09-17T03:55:02.513Z,7.66
2022-09-17T03:57:29.007Z,7.85
2022-09-17T04:03:59.496Z,7.95
2022-09-17T04:06:26.136Z,7.89
2022-09-17T04:08:54.470Z,8.03
2022-09-17T04:15:46.520Z,8.10
2022-09-17T04:18:13.932Z,8.16
2022-09-17T04:20:40.628Z,8.25
2022-09-17T04:26:53.808Z,8.28
2022-09-17T04:29:20.319Z,8.30
2022-09-17T04:36:00.595Z,8.13
2022-09-17T04:38:27.099Z,7.97
2022-09-17T04:45:37.473Z,8.05
2022-09-17T04:48:04.455Z,8.00
2022-09-17T04:58:14.949Z,7.94
2022-09-17T05:00:42.513Z,7.85
2022-09-17T05:06:58.450Z,7.76
2022-09-17T05:09:24.982Z,8.40
2022-09-17T05:11:51.467Z,8.51
2022-09-17T05:29:25.874Z,8.02
2022-09-17T05:31:52.350Z,8.02
2022-09-17T05:38:07.702Z,7.96
2022-09-17T05:40:34.374Z,7.94
2022-09-17T06:02:57.836Z,8.09
2022-09-17T06:05:25.265Z,8.20
2022-09-17T06:07:52.272Z,8.30
2022-09-17T06:10:19.021Z,8.41
2022-09-17T06:12:45.588Z,8.33
2022-09-17T06:15:14.649Z,8.27
2022-09-17T06:17:41.862Z,8.39
2022-09-17T06:20:08.984Z,8.41
2022-09-17T06:22:37.975Z,8.42
2022-09-17T06:25:04.977Z,8.79
2022-09-17T06:27:33.068Z,8.74
2022-09-17T06:29:59.911Z,8.73
2022-09-17T06:32:27.117Z,8.90
2022-09-17T06:34:54.092Z,9.05
2022-09-17T06:37:20.616Z,8.98
2022-09-17T06:39:47.574Z,9.18
2022-09-17T06:42:14.154Z,9.09
2022-09-17T06:44:40.963Z,9.18
2022-09-17T06:47:08.047Z,9.11
2022-09-17T06:49:34.547Z,9.22
2022-09-17T06:52:01.780Z,9.40
2022-09-17T06:54:31.229Z,9.54
2022-09-17T06:56:57.781Z,9.77
2022-09-17T06:59:24.514Z,9.90
2022-09-17T07:01:51.499Z,10.55
2022-09-17T07:04:18.886Z,11.40
2022-09-17T07:06:45.545Z,12.42
2022-09-17T07:09:12.356Z,13.18
2022-09-17T07:11:39.591Z,14.64
2022-09-17T07:14:06.942Z,14.38
2022-09-17T07:16:36.018Z,15.03
2022-09-17T07:19:03.908Z,14.34
2022-09-17T07:21:30.861Z,14.06
2022-09-17T07:23:57.615Z,13.89
2022-09-17T07:26:24.087Z,13.32
2022-09-17T07:31:27.331Z,12.46
2022-09-17T07:33:53.878Z,12.24
2022-09-17T07:36:20.429Z,12.24
2022-09-17T07:38:47.204Z,12.80
2022-09-17T07:41:17.107Z,13.62
2022-09-17T07:43:44.469Z,15.01
2022-09-17T07:46:19.295Z,16.06
2022-09-17T07:48:47.505Z,16.48
2022-09-17T07:51:18.727Z,15.21
2022-09-17T07:53:45.716Z,14.32
2022-09-17T07:56:12.311Z,13.85
2022-09-17T07:58:39.550Z,14.30
2022-09-17T08:01:08.755Z,13.75
2022-09-17T08:03:40.008Z,13.79
2022-09-17T08:06:12.968Z,13.44
2022-09-17T08:08:40.475Z,13.09
2022-09-17T08:11:08.486Z,12.89
2022-09-17T08:13:35.599Z,12.59
2022-09-17T08:16:05.370Z,12.51
2022-09-17T08:18:32.379Z,12.72
2022-09-17T08:21:00.107Z,12.30
2022-09-17T08:23:27.876Z,12.26
2022-09-17T08:25:55.862Z,12.40
2022-09-17T08:28:23.889Z,12.25
2022-09-17T08:30:50.544Z,12.62
2022-09-17T08:33:17.878Z,13.01
2022-09-17T08:35:54.988Z,13.90
2022-09-17T08:38:22.136Z,14.37
2022-09-17T08:41:20.368Z,15.27
2022-09-17T08:44:02.150Z,15.21
2022-09-17T08:46:40.728Z,15.85
2022-09-17T08:49:25.193Z,16.27
2022-09-17T08:51:53.248Z,16.66
2022-09-17T08:54:28.333Z,17.13
2022-09-17T08:57:36.953Z,17.12
2022-09-17T09:00:18.603Z,17.40
2022-09-17T09:03:07.033Z,17.66
2022-09-17T09:05:47.699Z,18.25
2022-09-17T09:08:51.012Z,19.03
2022-09-17T09:11:27.421Z,17.28
2022-09-17T09:14:00.490Z,16.82
2022-09-17T09:16:32.942Z,17.57
2022-09-17T09:19:13.836Z,15.82
2022-09-17T09:21:49.089Z,14.81
2022-09-17T09:24:28.679Z,14.18
2022-09-17T09:27:06.598Z,13.37
2022-09-17T09:29:45.470Z,12.96
2022-09-17T09:32:16.170Z,12.82
2022-09-17T09:34:45.491Z,12.49
2022-09-17T09:37:14.492Z,12.37
2022-09-17T09:39:45.928Z,12.51
2022-09-17T09:42:28.896Z,12.57
2022-09-17T09:45:04.272Z,12.62
2022-09-17T09:47:48.767Z,12.38
2022-09-17T09:50:42.910Z,12.39
2022-09-17T09:53:52.831Z,12.36
2022-09-17T09:56:34.724Z,12.24
2022-09-17T09:59:01.378Z,11.91
2022-09-17T10:01:30.239Z,11.55
2022-09-17T10:03:58.833Z,11.19
2022-09-17T10:06:29.489Z,11.04
2022-09-17T10:08:55.952Z,11.11
2022-09-17T10:11:27.286Z,10.82
2022-09-17T10:14:13.481Z,10.60
2022-09-17T10:16:40.060Z,10.54
2022-09-17T10:19:06.767Z,10.40
2022-09-17T10:21:39.801Z,10.10
2022-09-17T10:24:29.511Z,9.89
2022-09-17T10:27:05.641Z,9.43
2022-09-17T10:29:33.858Z,9.41
2022-09-17T10:32:00.861Z,9.45
2022-09-17T10:34:33.791Z,9.46
2022-09-17T10:37:00.303Z,9.73
2022-09-17T10:39:26.685Z,10.33
2022-09-17T10:41:56.946Z,10.62
2022-09-17T10:44:25.887Z,11.40
2022-09-17T10:46:53.466Z,11.43
2022-09-17T10:49:44.054Z,11.27
2022-09-17T10:52:43.890Z,11.41
2022-09-17T10:55:27.753Z,11.33
2022-09-17T10:58:07.294Z,10.58
2022-09-17T11:00:36.891Z,10.84
2022-09-17T11:03:22.295Z,11.03
2022-09-17T11:06:12.187Z,9.93
2022-09-17T11:08:46.811Z,10.32
2022-09-17T11:11:36.825Z,10.44
2022-09-17T11:14:15.688Z,10.84
2022-09-17T11:17:08.019Z,10.95
2022-09-17T11:19:45.573Z,11.28
2022-09-17T11:22:23.609Z,11.57
2022-09-17T11:25:27.668Z,11.33
2022-09-17T11:28:18.388Z,11.05
2022-09-17T11:31:05.131Z,11.15
2022-09-17T11:33:40.702Z,10.67
2022-09-17T11:36:46.089Z,10.78
2022-09-17T11:39:28.555Z,10.96
2022-09-17T11:41:58.531Z,11.36
2022-09-17T11:44:28.106Z,11.43
2022-09-17T11:47:02.875Z,11.31
2022-09-17T11:49:42.604Z,11.66
2022-09-17T11:52:13.829Z,11.56
2022-09-17T11:54:53.572Z,11.42
2022-09-17T11:57:22.938Z,11.62
2022-09-17T11:59:56.617Z,11.08
2022-09-17T12:02:38.072Z,11.35
2022-09-17T12:05:29.841Z,11.89
2022-09-17T12:08:04.673Z,11.62
2022-09-17T12:10:58.220Z,11.55
2022-09-17T12:13:24.684Z,11.70
2022-09-17T12:15:56.980Z,11.44
2022-09-17T12:18:41.935Z,11.50
2022-09-17T12:21:13.707Z,11.61
2022-09-17T12:23:49.894Z,11.29
2022-09-17T12:26:16.306Z,11.24
2022-09-17T12:28:59.559Z,11.96
2022-09-17T12:31:35.744Z,12.37
2022-09-17T12:34:25.927Z,12.28
2022-09-17T12:37:13.681Z,13.44
2022-09-17T12:40:09.892Z,13.79
2022-09-17T12:42:51.340Z,14.39
2022-09-17T12:45:35.702Z,14.93
2022-09-17T12:48:02.342Z,15.84
2022-09-17T12:50:46.957Z,16.63
2022-09-17T12:53:41.045Z,17.35
2022-09-17T12:56:07.663Z,17.60
2022-09-17T12:58:49.655Z,17.09
2022-09-17T13:01:36.407Z,16.80
2022-09-17T13:04:49.871Z,15.99
2022-09-17T13:07:27.939Z,15.00
2022-09-17T13:10:21.473Z,14.14
2022-09-17T13:12:47.869Z,13.73
2022-09-17T13:15:46.498Z,13.57
2022-09-17T13:18:26.711Z,13.62
2022-09-17T13:21:15.188Z,13.53
2022-09-17T13:23:45.548Z,13.27
2022-09-17T13:26:19.085Z,13.12
2022-09-17T13:28:50.747Z,13.94
2022-09-17T13:31:40.775Z,14.91
2022-09-17T13:34:19.533Z,15.16
2022-09-17T13:36:47.524Z,16.22
2022-09-17T13:39:41.593Z,16.72
2022-09-17T13:42:28.816Z,15.95
2022-09-17T13:45:08.752Z,15.04
2022-09-17T13:47:53.569Z,15.26
2022-09-17T13:50:26.331Z,14.84
2022-09-17T13:52:54.842Z,15.30
2022-09-17T13:55:35.324Z,14.62
2022-09-17T13:58:11.015Z,14.37
2022-09-17T14:00:51.140Z,14.91
2022-09-17T14:03:30.812Z,15.18
2022-09-17T14:06:22.054Z,16.05
2022-09-17T14:08:50.632Z,15.56
2022-09-17T14:11:22.853Z,14.86
2022-09-17T14:14:18.298Z,14.61
2022-09-17T14:16:46.298Z,14.20
2022-09-17T14:19:15.641Z,13.49
2022-09-17T14:21:57.479Z,12.61
2022-09-17T14:24:31.241Z,12.61
2022-09-17T14:27:30.327Z,12.46
2022-09-17T14:30:16.878Z,12.60
2022-09-17T14:33:08.059Z,12.50
2022-09-17T14:35:38.554Z,12.70
2022-09-17T14:38:20.813Z,12.65
2022-09-17T14:40:58.017Z,12.76
2022-09-17T14:43:50.124Z,13.04
2022-09-17T14:46:30.442Z,12.92
2022-09-17T14:49:24.052Z,12.96
2022-09-17T14:52:00.098Z,13.21
2022-09-17T14:54:27.842Z,13.20
2022-09-17T14:57:08.708Z,13.06
2022-09-17T14:59:35.135Z,12.95
2022-09-17T15:02:01.760Z,12.62
2022-09-17T15:04:28.694Z,12.29
2022-09-17T15:07:09.582Z,11.95
2022-09-17T15:09:36.231Z,11.86
2022-09-17T15:12:05.024Z,11.75
2022-09-17T15:14:34.873Z,11.76
2022-09-17T15:17:03.912Z,11.84
2022-09-17T15:19:42.903Z,11.85
2022-09-17T15:22:15.966Z,11.76
2022-09-17T15:24:55.919Z,11.71
2022-09-17T15:27:34.081Z,11.67
2022-09-17T15:30:06.659Z,11.77
2022-09-17T15:32:33.802Z,11.91
2022-09-17T15:35:18.558Z,12.08
2022-09-17T15:38:11.558Z,12.29
2022-09-17T15:40:39.176Z,12.34
2022-09-17T15:43:46.102Z,12.26
2022-09-17T15:46:21.327Z,12.24
2022-09-17T15:48:47.927Z,12.18
2022-09-17T15:51:29.078Z,12.05
2022-09-17T15:53:58.535Z,11.90
2022-09-17T15:56:29.114Z,11.76
2022-09-17T15:59:03.537Z,11.51
2022-09-17T16:01:30.041Z,11.45
2022-09-17T16:04:08.923Z,11.35
2022-09-17T16:06:37.047Z,11.11
2022-09-17T16:09:04.075Z,10.64
2022-09-17T16:11:32.217Z,10.39
2022-09-17T16:14:01.089Z,10.18
2022-09-17T16:16:34.535Z,10.02
2022-09-17T16:19:01.533Z,9.75
2022-09-17T16:21:29.027Z,9.43
2022-09-17T16:23:55.555Z,9.12
2022-09-17T16:26:25.678Z,8.98
2022-09-17T16:28:53.862Z,8.85
2022-09-17T16:31:21.200Z,8.77
2022-09-17T16:33:47.745Z,8.57
2022-09-17T16:36:17.202Z,8.49
2022-09-17T16:38:43.757Z,8.52
2022-09-17T16:41:10.272Z,8.55
2022-09-17T16:43:38.343Z,8.59
2022-09-17T16:46:07.939Z,8.51
2022-09-17T16:48:34.976Z,8.43
2022-09-17T16:51:09.765Z,8.20
2022-09-17T16:53:36.336Z,8.14
2022-09-17T16:56:10.341Z,8.03
2022-09-17T16:58:37.670Z,8.06
2022-09-17T17:01:12.734Z,8.00
2022-09-17T17:03:39.550Z,8.02
2022-09-17T17:06:06.804Z,8.00
2022-09-17T17:08:33.971Z,7.98
2022-09-17T17:11:01.074Z,7.88
2022-09-17T17:13:30.387Z,7.79
2022-09-17T17:15:56.902Z,7.74
2022-09-17T17:18:24.551Z,7.67
2022-09-17T17:20:51.088Z,7.70
2022-09-17T17:23:17.558Z,7.75
2022-09-17T17:25:44.019Z,7.72
2022-09-17T17:28:10.982Z,7.71
2022-09-17T17:30:38.395Z,7.68
2022-09-17T17:33:05.426Z,7.66
2022-09-17T17:35:31.984Z,7.70
2022-09-17T17:37:58.468Z,7.78
2022-09-17T17:40:25.398Z,7.76
2022-09-17T17:42:52.423Z,7.75
2022-09-17T17:45:18.884Z,7.69
2022-09-17T17:47:45.425Z,7.70
2022-09-17T17:50:11.930Z,7.64
2022-09-17T17:52:40.220Z,7.51
2022-09-17T17:55:07.193Z,7.50
2022-09-17T17:57:33.681Z,7.40
2022-09-17T18:00:00.234Z,7.40
2022-09-17T18:02:26.774Z,7.33
2022-09-17T18:04:53.372Z,7.25
2022-09-17T18:07:19.828Z,7.15
2022-09-17T18:09:47.035Z,7.07
2022-09-17T18:12:13.731Z,7.13
2022-09-17T18:14:40.230Z,7.22
2022-09-17T18:17:06.713Z,7.16
2022-09-17T18:19:33.276Z,7.09
2022-09-17T18:21:59.737Z,7.17
2022-09-17T18:24:26.255Z,7.24
2022-09-17T18:26:52.715Z,7.24
2022-09-17T18:29:19.266Z,7.21
2022-09-17T18:31:45.874Z,7.12
2022-09-17T18:34:15.912Z,7.06
2022-09-17T18:36:47.582Z,7.12
2022-09-17T18:39:55.694Z,6.96
2022-09-17T18:42:04.072Z,6.89
2022-09-17T18:44:30.554Z,6.92
2022-09-17T18:46:57.090Z,6.83
2022-09-17T18:49:23.713Z,6.77
2022-09-17T18:51:50.258Z,6.83
2022-09-17T18:54:16.734Z,6.94
2022-09-17T18:56:43.395Z,7.07
2022-09-17T18:59:10.395Z,7.26
2022-09-17T19:01:37.341Z,7.33
2022-09-17T19:04:04.235Z,7.42
2022-09-17T19:06:32.326Z,7.42
2022-09-17T19:09:01.147Z,7.41
2022-09-17T19:11:28.093Z,7.41
2022-09-17T19:13:55.032Z,7.40
2022-09-17T19:16:22.475Z,7.45
2022-09-17T19:18:49.093Z,7.40
2022-09-17T19:21:17.930Z,7.33
2022-09-17T19:23:49.974Z,7.22
2022-09-17T19:26:22.124Z,7.27
2022-09-17T19:28:52.473Z,7.23
2022-09-17T19:31:19.233Z,7.30
2022-09-17T19:33:46.693Z,7.28
2022-09-17T19:36:15.713Z,7.29
2022-09-17T19:38:42.710Z,7.23
2022-09-17T19:41:17.549Z,7.40
2022-09-17T19:43:45.207Z,7.46
2022-09-17T19:46:14.794Z,7.65
2022-09-17T19:48:52.211Z,7.78
2022-09-17T19:51:19.745Z,7.83
2022-09-17T19:53:46.423Z,7.74
2022-09-17T19:56:14.523Z,7.71
2022-09-17T19:58:41.823Z,7.72
2022-09-17T20:01:08.948Z,7.61
2022-09-17T20:03:35.663Z,7.40
2022-09-17T20:06:04.379Z,7.41
2022-09-17T20:08:31.273Z,7.59
2022-09-17T20:11:04.601Z,7.69
2022-09-17T20:13:31.498Z,7.69
2022-09-17T20:16:13.507Z,7.61
2022-09-17T20:18:40.654Z,7.58
2022-09-17T20:21:12.251Z,7.58
2022-09-17T20:23:38.871Z,7.57
2022-09-17T20:26:06.349Z,7.57
2022-09-17T20:28:33.831Z,7.55
2022-09-17T20:31:18.800Z,7.48
2022-09-17T20:33:46.566Z,7.57
2022-09-17T20:36:15.557Z,7.59
2022-09-17T20:41:29.029Z,7.60
2022-09-17T20:43:55.685Z,7.57
2022-09-17T20:46:28.310Z,7.56
2022-09-17T20:48:57.558Z,7.54
2022-09-17T20:51:28.990Z,7.58
2022-09-17T20:53:57.361Z,7.62
2022-09-17T20:56:31.349Z,7.61
2022-09-17T20:59:07.689Z,7.64
2022-09-17T21:01:35.730Z,7.54
2022-09-17T21:04:03.896Z,7.47
2022-09-17T21:06:33.919Z,7.37
2022-09-17T21:09:00.768Z,7.34
2022-09-17T21:11:29.104Z,7.21
2022-09-17T21:13:55.618Z,7.26
2022-09-17T21:16:22.246Z,7.20
2022-09-17T21:18:48.986Z,7.31
2022-09-17T21:21:17.944Z,7.35
2022-09-17T21:23:44.517Z,7.30
2022-09-17T21:26:15.147Z,7.39
2022-09-17T21:28:43.638Z,7.35
2022-09-17T21:31:17.652Z,7.26
2022-09-17T21:33:45.671Z,7.23
2022-09-17T21:36:18.067Z,7.19
2022-09-17T21:38:44.872Z,7.33
2022-09-17T21:41:14.507Z,7.31
2022-09-17T21:43:41.808Z,7.27
2022-09-17T21:46:16.950Z,7.23
2022-09-17T21:48:46.035Z,7.27
2022-09-17T21:51:21.189Z,7.32
2022-09-17T21:53:52.342Z,7.39
2022-09-17T21:56:20.032Z,7.38
2022-09-17T21:58:51.004Z,7.42
2022-09-17T22:01:20.265Z,7.39
2022-09-17T22:03:47.159Z,7.40
2022-09-17T22:06:16.535Z,7.41
2022-09-17T22:08:43.189Z,7.40
2022-09-17T22:11:12.750Z,7.41
2022-09-17T22:13:40.058Z,7.39
2022-09-17T22:16:08.825Z,7.38
2022-09-17T22:18:37.473Z,7.45
2022-09-17T22:21:17.559Z,7.39
2022-09-17T22:23:44.067Z,7.44
2022-09-17T22:26:11.172Z,7.35
2022-09-17T22:28:38.084Z,7.29
2022-09-17T22:31:07.372Z,7.26
2022-09-17T22:33:36.358Z,7.24
2022-09-17T22:36:09.091Z,7.18
2022-09-17T22:38:36.472Z,7.14
2022-09-17T22:41:07.003Z,7.07
2022-09-17T22:43:33.802Z,7.09
2022-09-17T22:46:00.965Z,7.07
2022-09-17T22:48:27.621Z,7.05
2022-09-17T22:50:54.061Z,7.03
2022-09-17T22:53:20.575Z,6.97
2022-09-17T22:55:55.116Z,6.81
2022-09-17T22:58:24.187Z,6.75
2022-09-17T23:00:52.573Z,6.61
2022-09-17T23:03:19.287Z,6.61
2022-09-17T23:05:45.855Z,6.50
2022-09-17T23:08:13.780Z,6.47
2022-09-17T23:10:41.827Z,6.45
2022-09-17T23:13:09.502Z,6.42
2022-09-17T23:15:37.654Z,6.35
2022-09-17T23:18:05.026Z,6.26
2022-09-17T23:20:32.633Z,6.22
2022-09-17T23:23:00.011Z,6.20
2022-09-17T23:25:30.057Z,6.15
2022-09-17T23:27:57.059Z,6.11
2022-09-17T23:30:25.260Z,6.07
2022-09-17T23:32:55.738Z,6.03
2022-09-17T23:35:23.281Z,5.92
2022-09-17T23:37:50.420Z,6.07
2022-09-17T23:40:18.382Z,6.18
2022-09-17T23:42:44.955Z,6.23
2022-09-17T23:45:11.523Z,6.14
2022-09-17T23:47:38.073Z,6.06
2022-09-17T23:50:05.015Z,6.04
2022-09-17T23:52:31.492Z,6.10
2022-09-17T23:54:58.679Z,6.09
2022-09-17T23:57:25.662Z,5.95
2022-09-17T23:59:52.228Z,6.02
